createdAt,value
2022-08-05T00:02:24.826Z,98809.88
2022-08-05T00:04:55.407Z,98811.13
2022-08-05T00:07:58.821Z,98812.78
2022-08-05T00:10:09.273Z,98803.63
2022-08-05T00:12:36.023Z,98806.97
2022-08-05T00:15:55.456Z,98809.06
2022-08-05T00:18:09.836Z,98798.63
2022-08-05T00:20:48.042Z,98800.72
2022-08-05T00:23:15.256Z,98793.22
2022-08-05T00:25:45.936Z,98791.09
2022-08-05T00:28:13.300Z,98785.66
2022-08-05T00:30:41.244Z,98792.25
2022-08-05T00:33:15.635Z,98789.34
2022-08-05T00:36:16.322Z,98774.78
2022-08-05T00:38:43.967Z,98775.66
2022-08-05T00:41:11.666Z,98775.03
2022-08-05T00:43:47.282Z,98770.13
2022-08-05T00:46:16.833Z,98774.56
2022-08-05T00:48:50.449Z,98768.94
2022-08-05T00:51:50.873Z,98769.34
2022-08-05T00:54:05.089Z,98768.88
2022-08-05T00:56:32.674Z,98762.63
2022-08-05T00:59:00.441Z,98760.53
2022-08-05T01:01:48.356Z,98764.28
2022-08-05T01:04:16.130Z,98760.94
2022-08-05T01:06:48.720Z,98760.50
2022-08-05T01:09:17.409Z,98758.03
2022-08-05T01:11:46.792Z,98750.13
2022-08-05T01:14:15.640Z,98748.88
2022-08-05T01:16:44.193Z,98751.38
2022-08-05T01:19:10.896Z,98744.53
2022-08-05T01:21:41.034Z,98748.03
2022-08-05T01:24:13.435Z,98744.06
2022-08-05T01:26:40.927Z,98748.00
2022-08-05T01:29:07.675Z,98738.38
2022-08-05T01:31:44.581Z,98743.78
2022-08-05T01:34:11.533Z,98745.31
2022-08-05T01:36:42.228Z,98740.50
2022-08-05T01:39:15.312Z,98747.53
2022-08-05T01:42:01.901Z,98740.38
2022-08-05T01:44:35.212Z,98739.75
2022-08-05T01:47:02.041Z,98736.63
2022-08-05T01:50:00.469Z,98737.94
2022-08-05T01:52:19.235Z,98739.25
2022-08-05T01:54:46.519Z,98733.66
2022-08-05T01:58:09.880Z,98733.47
2022-08-05T01:59:59.730Z,98728.66
2022-08-05T02:02:28.338Z,98730.72
2022-08-05T02:04:55.622Z,98733.63
2022-08-05T02:07:22.723Z,98725.13
2022-08-05T02:09:49.448Z,98733.84
2022-08-05T02:12:17.624Z,98727.56
2022-08-05T02:14:44.257Z,98726.03
2022-08-05T02:17:16.679Z,98724.09
2022-08-05T02:19:47.690Z,98719.56
2022-08-05T02:22:25.641Z,98724.78
2022-08-05T02:24:53.290Z,98723.69
2022-08-05T02:27:20.060Z,98724.88
2022-08-05T02:29:59.954Z,98723.16
2022-08-05T02:32:30.911Z,98724.38
2022-08-05T02:34:58.109Z,98730.16
2022-08-05T02:37:28.791Z,98732.72
2022-08-05T02:39:58.686Z,98730.84
2022-08-05T02:42:27.702Z,98729.03
2022-08-05T02:44:58.747Z,98715.97
2022-08-05T02:47:25.538Z,98714.00
2022-08-05T02:50:11.926Z,98714.28
2022-08-05T02:52:38.346Z,98710.97
2022-08-05T02:55:10.963Z,98715.47
2022-08-05T02:58:09.654Z,98709.41
2022-08-05T03:00:26.142Z,98715.22
2022-08-05T03:02:55.942Z,98707.66
2022-08-05T03:06:53.821Z,98708.53
2022-08-05T03:08:15.044Z,98717.75
2022-08-05T03:10:43.062Z,98714.03
2022-08-05T03:13:51.477Z,98709.34
2022-08-05T03:16:16.111Z,98715.38
2022-08-05T03:18:46.204Z,98703.47
2022-08-05T03:21:15.349Z,98712.50
2022-08-05T03:23:42.658Z,98710.25
2022-08-05T03:26:32.060Z,98708.59
2022-08-05T03:28:58.682Z,98700.41
2022-08-05T03:31:41.488Z,98698.94
2022-08-05T03:34:11.825Z,98709.72
2022-08-05T03:36:38.432Z,98706.25
2022-08-05T03:39:07.090Z,98703.69
2022-08-05T03:41:38.762Z,98700.34
2022-08-05T03:44:13.727Z,98710.63
2022-08-05T03:46:46.729Z,98712.94
2022-08-05T03:49:13.305Z,98708.00
2022-08-05T03:52:48.402Z,98712.78
2022-08-05T03:55:50.982Z,98712.31
2022-08-05T03:57:15.984Z,98713.75
2022-08-05T03:59:46.746Z,98709.28
2022-08-05T04:02:17.401Z,98718.47
2022-08-05T04:04:44.964Z,98713.91
2022-08-05T04:07:11.408Z,98715.28
2022-08-05T04:09:53.628Z,98711.78
2022-08-05T04:12:24.554Z,98709.09
2022-08-05T04:14:51.686Z,98705.34
2022-08-05T04:17:18.470Z,98704.75
2022-08-05T04:19:46.158Z,98707.22
2022-08-05T04:22:22.479Z,98703.56
2022-08-05T04:24:53.209Z,98710.56
2022-08-05T04:27:19.661Z,98696.06
2022-08-05T04:30:06.329Z,98706.53
2022-08-05T04:32:33.586Z,98709.63
2022-08-05T04:35:03.226Z,98698.97
2022-08-05T04:38:01.417Z,98707.78
2022-08-05T04:40:19.588Z,98708.31
2022-08-05T04:42:46.519Z,98707.13
2022-08-05T04:45:23.040Z,98710.25
2022-08-05T04:47:57.759Z,98707.06
2022-08-05T04:50:37.284Z,98713.50
2022-08-05T04:53:05.101Z,98714.59
2022-08-05T04:56:15.025Z,98706.19
2022-08-05T04:58:21.825Z,98701.41
2022-08-05T05:00:50.692Z,98701.41
2022-08-05T05:03:20.341Z,98694.81
2022-08-05T05:06:38.811Z,98694.63
2022-08-05T05:08:33.513Z,98696.13
2022-08-05T05:11:00.074Z,98691.34
2022-08-05T05:13:26.572Z,98692.63
2022-08-05T05:16:02.237Z,98694.09
2022-08-05T05:18:33.868Z,98698.31
2022-08-05T05:21:00.606Z,98698.00
2022-08-05T05:23:38.787Z,98694.63
2022-08-05T05:26:13.630Z,98701.56
2022-08-05T05:28:44.851Z,98695.91
2022-08-05T05:31:11.683Z,98700.88
2022-08-05T05:33:58.643Z,98703.78
2022-08-05T05:36:24.678Z,98704.06
2022-08-05T05:38:55.466Z,98698.19
2022-08-05T05:41:21.966Z,98702.63
2022-08-05T05:43:58.514Z,98707.59
2022-08-05T05:46:26.944Z,98702.00
2022-08-05T05:48:53.342Z,98695.28
2022-08-05T05:51:19.766Z,98706.63
2022-08-05T05:53:57.921Z,98701.94
2022-08-05T05:56:33.084Z,98703.78
2022-08-05T05:59:02.896Z,98702.59
2022-08-05T06:01:38.251Z,98703.13
2022-08-05T06:04:05.247Z,98707.94
2022-08-05T06:06:33.208Z,98708.13
2022-08-05T06:09:01.449Z,98705.22
2022-08-05T06:11:30.495Z,98709.00
2022-08-05T06:13:56.918Z,98712.97
2022-08-05T06:16:28.927Z,98706.75
2022-08-05T06:18:59.935Z,98715.94
2022-08-05T06:21:36.078Z,98713.66
2022-08-05T06:24:03.890Z,98716.31
2022-08-05T06:26:33.767Z,98711.69
2022-08-05T06:29:06.039Z,98714.81
2022-08-05T06:31:33.575Z,98716.91
2022-08-05T06:34:06.861Z,98712.44
2022-08-05T06:36:53.493Z,98725.78
2022-08-05T06:39:21.737Z,98730.91
2022-08-05T06:41:48.539Z,98738.69
2022-08-05T06:44:15.020Z,98733.81
2022-08-05T06:46:41.885Z,98720.66
2022-08-05T06:49:09.165Z,98727.19
2022-08-05T06:51:40.824Z,98730.91
2022-08-05T06:54:07.460Z,98719.56
2022-08-05T06:56:35.240Z,98727.06
2022-08-05T06:59:02.776Z,98720.63
2022-08-05T07:01:32.585Z,98727.34
2022-08-05T07:04:06.801Z,98721.16
2022-08-05T07:06:34.117Z,98713.81
2022-08-05T07:09:04.298Z,98715.25
2022-08-05T07:11:31.019Z,98725.38
2022-08-05T07:13:59.695Z,98723.38
2022-08-05T07:18:00.823Z,98727.19
2022-08-05T07:19:15.461Z,98726.72
2022-08-05T07:22:00.242Z,98713.19
2022-08-05T07:24:28.701Z,98718.81
2022-08-05T07:26:56.684Z,98722.56
2022-08-05T07:29:25.323Z,98709.31
2022-08-05T07:32:10.979Z,98716.00
2022-08-05T07:34:42.049Z,98716.78
2022-08-05T07:37:11.495Z,98722.25
2022-08-05T07:40:26.319Z,98722.47
2022-08-05T07:42:31.711Z,98714.38
2022-08-05T07:45:00.875Z,98720.59
2022-08-05T07:47:27.807Z,98716.50
2022-08-05T07:50:09.271Z,98713.34
2022-08-05T07:52:35.745Z,98722.66
2022-08-05T07:55:02.366Z,98718.06
2022-08-05T07:57:51.383Z,98720.25
2022-08-05T08:00:28.455Z,98722.75
2022-08-05T08:03:13.589Z,98729.94
2022-08-05T08:05:47.298Z,98724.78
2022-08-05T08:08:16.623Z,98730.00
2022-08-05T08:10:48.786Z,98724.22
2022-08-05T08:13:15.727Z,98725.28
2022-08-05T08:16:50.116Z,98722.97
2022-08-05T08:18:35.315Z,98720.25
2022-08-05T08:21:09.547Z,98727.34
2022-08-05T08:24:02.529Z,98723.59
2022-08-05T08:26:29.790Z,98722.34
2022-08-05T08:28:59.783Z,98722.81
2022-08-05T08:31:43.380Z,98725.09
2022-08-05T08:34:09.933Z,98714.69
2022-08-05T08:36:48.834Z,98716.34
2022-08-05T08:39:19.184Z,98717.19
2022-08-05T08:41:51.841Z,98716.53
2022-08-05T08:45:19.920Z,98716.56
2022-08-05T08:47:47.552Z,98710.97
2022-08-05T08:50:07.725Z,98710.16
2022-08-05T08:52:51.689Z,98703.22
2022-08-05T08:56:03.202Z,98712.44
2022-08-05T08:58:05.950Z,98709.28
2022-08-05T09:00:39.181Z,98705.94
2022-08-05T09:03:06.256Z,98710.97
2022-08-05T09:05:39.005Z,98710.34
2022-08-05T09:08:19.892Z,98716.59
2022-08-05T09:10:53.433Z,98706.16
2022-08-05T09:13:20.468Z,98705.53
2022-08-05T09:15:50.546Z,98715.78
2022-08-05T09:18:17.253Z,98702.41
2022-08-05T09:20:43.924Z,98707.81
2022-08-05T09:23:19.137Z,98712.38
2022-08-05T09:26:03.193Z,98711.97
2022-08-05T09:28:32.192Z,98716.56
2022-08-05T09:30:59.798Z,98713.41
2022-08-05T09:33:35.192Z,98708.53
2022-08-05T09:36:16.141Z,98712.34
2022-08-05T09:38:43.151Z,98713.34
2022-08-05T09:41:16.061Z,98712.38
2022-08-05T09:43:42.754Z,98704.06
2022-08-05T09:46:09.370Z,98708.16
2022-08-05T09:48:38.683Z,98709.75
2022-08-05T09:51:15.107Z,98704.75
2022-08-05T09:53:53.437Z,98704.81
2022-08-05T09:56:21.713Z,98697.22
2022-08-05T09:58:50.252Z,98697.66
2022-08-05T10:01:32.150Z,98689.69
2022-08-05T10:04:00.117Z,98702.28
2022-08-05T10:06:27.184Z,98695.50
2022-08-05T10:08:55.535Z,98689.66
2022-08-05T10:11:22.816Z,98701.50
2022-08-05T10:13:49.594Z,98696.66
2022-08-05T10:16:21.394Z,98700.97
2022-08-05T10:18:48.444Z,98689.50
2022-08-05T10:21:18.594Z,98682.38
2022-08-05T10:24:00.032Z,98686.91
2022-08-05T10:26:32.590Z,98691.47
2022-08-05T10:29:00.676Z,98682.78
2022-08-05T10:32:55.702Z,98687.16
2022-08-05T10:34:17.638Z,98683.88
2022-08-05T10:36:44.124Z,98681.75
2022-08-05T10:39:14.993Z,98682.00
2022-08-05T10:41:44.836Z,98684.59
2022-08-05T10:44:12.970Z,98685.84
2022-08-05T10:46:39.418Z,98680.41
2022-08-05T10:49:09.768Z,98681.50
2022-08-05T10:51:36.852Z,98678.81
2022-08-05T10:54:28.728Z,98675.84
2022-08-05T10:56:57.320Z,98679.63
2022-08-05T11:00:04.323Z,98671.66
2022-08-05T11:02:14.438Z,98679.81
2022-08-05T11:04:57.176Z,98673.03
2022-08-05T11:07:32.750Z,98666.47
2022-08-05T11:10:04.024Z,98675.56
2022-08-05T11:12:37.267Z,98668.59
2022-08-05T11:15:19.046Z,98658.78
2022-08-05T11:17:59.717Z,98665.59
2022-08-05T11:20:30.606Z,98664.22
2022-08-05T11:23:02.008Z,98668.41
2022-08-05T11:26:06.037Z,98662.94
2022-08-05T11:28:20.025Z,98662.47
2022-08-05T11:30:53.282Z,98658.59
2022-08-05T11:33:21.177Z,98660.25
2022-08-05T11:36:07.576Z,98657.25
2022-08-05T11:38:36.593Z,98657.56
2022-08-05T11:41:35.380Z,98652.78
2022-08-05T11:44:06.575Z,98659.88
2022-08-05T11:46:35.016Z,98652.78
2022-08-05T11:49:01.623Z,98651.91
2022-08-05T11:51:44.393Z,98652.84
2022-08-05T11:54:16.479Z,98651.56
2022-08-05T11:56:43.203Z,98663.16
2022-08-05T11:59:21.248Z,98655.81
2022-08-05T12:01:47.920Z,98654.53
2022-08-05T12:04:19.387Z,98652.38
2022-08-05T12:06:49.630Z,98649.69
2022-08-05T12:09:19.966Z,98655.75
2022-08-05T12:11:47.204Z,98658.47
2022-08-05T12:14:13.891Z,98661.78
2022-08-05T12:16:40.410Z,98655.53
2022-08-05T12:20:27.202Z,98654.06
2022-08-05T12:21:59.466Z,98651.25
2022-08-05T12:24:28.190Z,98648.88
2022-08-05T12:26:56.602Z,98651.56
2022-08-05T12:29:23.678Z,98642.78
2022-08-05T12:31:53.953Z,98647.41
2022-08-05T12:34:23.551Z,98652.41
2022-08-05T12:36:50.556Z,98645.31
2022-08-05T12:39:17.066Z,98647.56
2022-08-05T12:41:44.044Z,98657.75
2022-08-05T12:44:11.610Z,98646.59
2022-08-05T12:46:40.803Z,98644.69
2022-08-05T12:49:13.617Z,98639.28
2022-08-05T12:52:12.570Z,98638.81
2022-08-05T12:54:28.421Z,98649.78
2022-08-05T12:56:55.367Z,98638.34
2022-08-05T12:59:27.459Z,98639.34
2022-08-05T13:02:01.382Z,98632.97
2022-08-05T13:04:32.597Z,98641.44
2022-08-05T13:07:10.367Z,98642.44
2022-08-05T13:09:42.705Z,98635.66
2022-08-05T13:12:13.263Z,98645.16
2022-08-05T13:14:42.848Z,98636.25
2022-08-05T13:17:09.347Z,98640.41
2022-08-05T13:19:52.490Z,98630.25
2022-08-05T13:22:27.773Z,98621.69
2022-08-05T13:24:57.885Z,98618.94
2022-08-05T13:27:35.577Z,98625.13
2022-08-05T13:30:35.759Z,98629.91
2022-08-05T13:32:52.366Z,98617.88
2022-08-05T13:35:43.191Z,98618.22
2022-08-05T13:38:14.521Z,98613.75
2022-08-05T13:40:55.377Z,98618.19
2022-08-05T13:43:24.332Z,98615.28
2022-08-05T13:46:11.564Z,98605.88
2022-08-05T13:48:57.366Z,98610.91
2022-08-05T13:51:36.478Z,98607.69
2022-08-05T13:54:12.428Z,98607.25
2022-08-05T13:56:45.153Z,98599.00
2022-08-05T13:59:19.387Z,98593.06
2022-08-05T14:01:57.826Z,98593.16
2022-08-05T14:04:26.430Z,98594.09
2022-08-05T14:06:58.775Z,98588.56
2022-08-05T14:09:45.954Z,98587.75
2022-08-05T14:12:17.540Z,98575.50
2022-08-05T14:14:58.534Z,98576.78
2022-08-05T14:17:28.339Z,98572.16
2022-08-05T14:19:59.643Z,98570.44
2022-08-05T14:22:30.425Z,98565.69
2022-08-05T14:24:57.177Z,98576.22
2022-08-05T14:27:23.645Z,98574.06
2022-08-05T14:29:56.341Z,98574.72
2022-08-05T14:32:27.129Z,98572.50
2022-08-05T14:34:56.731Z,98568.13
2022-08-05T14:37:24.305Z,98559.34
2022-08-05T14:40:10.764Z,98565.47
2022-08-05T14:42:41.372Z,98566.84
2022-08-05T14:45:09.071Z,98566.19
2022-08-05T14:48:03.726Z,98561.91
2022-08-05T14:50:23.022Z,98564.31
2022-08-05T14:52:58.485Z,98563.44
2022-08-05T14:55:25.394Z,98568.28
2022-08-05T14:57:54.337Z,98568.00
2022-08-05T15:00:28.129Z,98555.03
2022-08-05T15:02:56.141Z,98565.00
2022-08-05T15:05:29.927Z,98573.63
2022-08-05T15:08:38.031Z,98560.59
2022-08-05T15:10:59.428Z,98574.97
2022-08-05T15:13:28.641Z,98577.28
2022-08-05T15:16:13.207Z,98572.34
2022-08-05T15:18:40.059Z,98581.63
2022-08-05T15:21:08.118Z,98581.84
2022-08-05T15:23:34.708Z,98578.91
2022-08-05T15:26:04.924Z,98566.75
2022-08-05T15:28:31.367Z,98565.78
2022-08-05T15:30:58.854Z,98569.47
2022-08-05T15:34:05.247Z,98576.13
2022-08-05T15:36:17.519Z,98567.53
2022-08-05T15:38:51.088Z,98567.91
2022-08-05T15:41:57.743Z,98555.41
2022-08-05T15:44:24.545Z,98570.94
2022-08-05T15:46:52.692Z,98560.34
2022-08-05T15:49:27.279Z,98553.88
2022-08-05T15:52:14.213Z,98559.91
2022-08-05T15:54:55.581Z,98551.56
2022-08-05T15:57:26.380Z,98549.97
2022-08-05T15:59:59.713Z,98554.84
2022-08-05T16:02:32.970Z,98551.19
2022-08-05T16:04:59.827Z,98548.44
2022-08-05T16:07:26.363Z,98549.47
2022-08-05T16:09:56.565Z,98559.91
2022-08-05T16:12:25.862Z,98556.09
2022-08-05T16:14:52.761Z,98568.59
2022-08-05T16:17:19.488Z,98558.00
2022-08-05T16:20:05.190Z,98560.91
2022-08-05T16:22:34.120Z,98563.31
2022-08-05T16:25:07.934Z,98560.69
2022-08-05T16:27:47.062Z,98560.72
2022-08-05T16:30:26.233Z,98574.41
2022-08-05T16:32:55.288Z,98561.97
2022-08-05T16:35:27.778Z,98564.84
2022-08-05T16:38:15.777Z,98564.50
2022-08-05T16:40:41.777Z,98571.69
2022-08-05T16:43:08.383Z,98566.47
2022-08-05T16:46:03.549Z,98569.38
2022-08-05T16:48:25.447Z,98568.53
2022-08-05T16:50:52.858Z,98568.25
2022-08-05T16:53:23.323Z,98566.50
2022-08-05T16:56:01.603Z,98566.41
2022-08-05T16:58:28.420Z,98565.16
2022-08-05T17:00:56.624Z,98566.34
2022-08-05T17:03:25.989Z,98560.38
2022-08-05T17:05:59.659Z,98563.81
2022-08-05T17:08:36.148Z,98562.53
2022-08-05T17:11:17.044Z,98551.16
2022-08-05T17:13:43.951Z,98554.78
2022-08-05T17:16:29.918Z,98546.91
2022-08-05T17:18:57.055Z,98544.66
2022-08-05T17:21:23.588Z,98547.16
2022-08-05T17:24:04.284Z,98537.94
2022-08-05T17:26:34.921Z,98555.44
2022-08-05T17:29:04.969Z,98553.63
2022-08-05T17:31:41.249Z,98554.38
2022-08-05T17:34:30.123Z,98551.34
2022-08-05T17:36:59.054Z,98549.16
2022-08-05T17:39:33.129Z,98550.31
2022-08-05T17:42:19.265Z,98561.47
2022-08-05T17:44:50.382Z,98561.59
2022-08-05T17:47:18.013Z,98574.28
2022-08-05T17:49:56.768Z,98578.81
2022-08-05T17:52:30.394Z,98575.97
2022-08-05T17:54:58.146Z,98580.56
2022-08-05T17:57:27.701Z,98582.44
2022-08-05T18:00:05.027Z,98579.53
2022-08-05T18:02:32.460Z,98586.38
2022-08-05T18:04:59.472Z,98590.88
2022-08-05T18:07:40.926Z,98594.38
2022-08-05T18:10:10.808Z,98592.06
2022-08-05T18:12:39.114Z,98593.16
2022-08-05T18:15:05.506Z,98591.75
2022-08-05T18:18:01.259Z,98590.44
2022-08-05T18:20:19.008Z,98595.47
2022-08-05T18:22:53.953Z,98595.63
2022-08-05T18:25:20.921Z,98608.38
2022-08-05T18:27:52.045Z,98607.31
2022-08-05T18:30:19.244Z,98610.09
2022-08-05T18:32:53.327Z,98609.97
2022-08-05T18:35:20.515Z,98607.81
2022-08-05T18:38:06.912Z,98605.72
2022-08-05T18:41:54.319Z,98612.00
2022-08-05T18:43:23.161Z,98608.16
2022-08-05T18:45:50.693Z,98615.72
2022-08-05T18:48:30.749Z,98616.50
2022-08-05T18:52:02.937Z,98616.59
2022-08-05T18:53:50.523Z,98613.59
2022-08-05T18:56:17.395Z,98614.91
2022-08-05T18:58:50.839Z,98621.72
2022-08-05T19:01:47.413Z,98628.50
2022-08-05T19:04:24.179Z,98615.72
2022-08-05T19:06:51.953Z,98622.63
2022-08-05T19:09:21.275Z,98618.50
2022-08-05T19:11:59.547Z,98619.91
2022-08-05T19:14:59.328Z,98622.69
2022-08-05T19:17:14.942Z,98631.75
2022-08-05T19:19:47.114Z,98632.28
2022-08-05T19:22:17.313Z,98625.47
2022-08-05T19:24:55.878Z,98625.34
2022-08-05T19:27:23.650Z,98630.94
2022-08-05T19:29:50.821Z,98628.94
2022-08-05T19:32:17.637Z,98633.19
2022-08-05T19:34:54.617Z,98630.25
2022-08-05T19:37:22.632Z,98632.63
2022-08-05T19:40:01.887Z,98633.38
2022-08-05T19:42:35.314Z,98634.00
2022-08-05T19:45:02.985Z,98627.94
2022-08-05T19:47:33.051Z,98629.34
2022-08-05T19:50:00.981Z,98630.16
2022-08-05T19:52:31.164Z,98634.03
2022-08-05T19:55:00.446Z,98638.34
2022-08-05T19:57:47.414Z,98633.38
2022-08-05T20:00:23.742Z,98636.56
2022-08-05T20:02:53.996Z,98630.19
2022-08-05T20:05:28.178Z,98630.31
2022-08-05T20:08:10.934Z,98635.03
2022-08-05T20:10:37.981Z,98627.75
2022-08-05T20:13:10.010Z,98628.25
2022-08-05T20:15:51.587Z,98622.31
2022-08-05T20:18:33.094Z,98627.38
2022-08-05T20:21:00.874Z,98637.41
2022-08-05T20:23:39.493Z,98638.47
2022-08-05T20:26:18.385Z,98636.38
2022-08-05T20:28:45.293Z,98641.44
2022-08-05T20:31:11.937Z,98632.84
2022-08-05T20:33:38.477Z,98632.91
2022-08-05T20:36:10.250Z,98633.63
2022-08-05T20:38:37.938Z,98625.25
2022-08-05T20:41:08.335Z,98630.50
2022-08-05T20:43:58.711Z,98626.34
2022-08-05T20:46:25.166Z,98617.06
2022-08-05T20:48:52.031Z,98620.38
2022-08-05T20:51:18.434Z,98620.94
2022-08-05T20:53:56.370Z,98619.69
2022-08-05T20:56:28.981Z,98629.00
2022-08-05T20:58:56.536Z,98633.59
2022-08-05T21:01:38.526Z,98627.56
2022-08-05T21:04:06.380Z,98619.03
2022-08-05T21:06:33.474Z,98619.28
2022-08-05T21:09:00.359Z,98614.97
2022-08-05T21:12:07.515Z,98615.03
2022-08-05T21:14:13.521Z,98616.91
2022-08-05T21:16:40.975Z,98618.03
2022-08-05T21:19:08.504Z,98608.75
2022-08-05T21:21:43.740Z,98607.34
2022-08-05T21:24:16.754Z,98614.00
2022-08-05T21:26:53.345Z,98615.97
2022-08-05T21:29:23.432Z,98612.88
2022-08-05T21:31:53.066Z,98620.06
2022-08-05T21:34:20.113Z,98620.31
2022-08-05T21:36:49.152Z,98624.97
2022-08-05T21:39:17.023Z,98633.97
2022-08-05T21:42:01.525Z,98629.47
2022-08-05T21:44:29.275Z,98644.50
2022-08-05T21:46:58.228Z,98645.34
2022-08-05T21:49:48.631Z,98641.53
2022-08-05T21:52:27.156Z,98645.28
2022-08-05T21:54:54.915Z,98652.66
2022-08-05T21:57:31.235Z,98647.66
2022-08-05T22:00:10.946Z,98639.09
2022-08-05T22:02:38.357Z,98650.31
2022-08-05T22:05:04.860Z,98646.75
2022-08-05T22:07:54.479Z,98652.59
2022-08-05T22:10:25.593Z,98652.75
2022-08-05T22:12:53.907Z,98664.81
2022-08-05T22:16:01.991Z,98662.44
2022-08-05T22:18:14.918Z,98669.22
2022-08-05T22:20:41.525Z,98660.03
2022-08-05T22:23:16.956Z,98665.13
2022-08-05T22:26:10.773Z,98675.63
2022-08-05T22:28:33.105Z,98675.75
2022-08-05T22:31:05.237Z,98679.91
2022-08-05T22:33:57.081Z,98683.63
2022-08-05T22:36:24.118Z,98679.69
2022-08-05T22:38:50.783Z,98682.41
2022-08-05T22:41:26.417Z,98685.59
2022-08-05T22:44:08.311Z,98680.28
2022-08-05T22:46:39.607Z,98677.38
2022-08-05T22:49:06.977Z,98684.44
2022-08-05T22:52:06.101Z,98682.41
2022-08-05T22:54:25.375Z,98692.41
2022-08-05T22:56:54.532Z,98690.34
2022-08-05T22:59:46.582Z,98696.44
2022-08-05T23:02:08.473Z,98696.84
2022-08-05T23:04:35.222Z,98688.94
2022-08-05T23:07:02.416Z,98694.34
2022-08-05T23:09:58.199Z,98699.16
2022-08-05T23:12:16.512Z,98706.00
2022-08-05T23:14:44.196Z,98704.19
2022-08-05T23:17:10.740Z,98704.06
2022-08-05T23:19:46.631Z,98715.34
2022-08-05T23:22:23.625Z,98694.94
2022-08-05T23:24:53.665Z,98697.44
2022-08-05T23:27:20.305Z,98685.69
2022-08-05T23:29:49.273Z,98683.22
2022-08-05T23:32:17.240Z,98686.09
2022-08-05T23:34:49.628Z,98690.53
2022-08-05T23:37:17.905Z,98689.03
2022-08-05T23:39:54.622Z,98694.44
2022-08-05T23:42:29.660Z,98705.28
2022-08-05T23:44:56.528Z,98704.28
2022-08-05T23:47:25.002Z,98704.53
2022-08-05T23:49:55.594Z,98712.91
2022-08-05T23:52:25.281Z,98717.66
2022-08-05T23:54:52.125Z,98711.25
2022-08-05T23:57:18.728Z,98718.09
